sensor_id;sensor_type;location;lat;lon;timestamp;pressure;altitude;pressure_sealevel;temperature;humidity
69318;BME280;56457;52.190;4.440;2023-02-15T00:00:43;103039.31;;;4.29;100.00
69318;BME280;56457;52.190;4.440;2023-02-15T00:01:44;103038.50;;;4.30;100.00
69318;BME280;56457;52.190;4.440;2023-02-15T00:02:44;103040.09;;;4.28;100.00
69318;BME280;56457;52.190;4.440;2023-02-15T00:03:47;103036.53;;;4.26;100.00
69318;BME280;56457;52.190;4.440;2023-02-15T00:04:47;103036.72;;;4.29;100.00
69318;BME280;56457;52.190;4.440;2023-02-15T00:05:47;103038.50;;;4.30;100.00
69318;BME280;56457;52.190;4.440;2023-02-15T00:06:48;103033.44;;;4.33;100.00
69318;BME280;56457;52.190;4.440;2023-02-15T00:07:48;103030.84;;;4.33;100.00
69318;BME280;56457;52.190;4.440;2023-02-15T00:08:48;103030.03;;;4.35;100.00
69318;BME280;56457;52.190;4.440;2023-02-15T00:09:49;103027.53;;;4.36;100.00
69318;BME280;56457;52.190;4.440;2023-02-15T00:10:49;103027.59;;;4.38;100.00
69318;BME280;56457;52.190;4.440;2023-02-15T00:11:49;103024.19;;;4.39;100.00
69318;BME280;56457;52.190;4.440;2023-02-15T00:12:50;103016.41;;;4.39;100.00
69318;BME280;56457;52.190;4.440;2023-02-15T00:13:50;103019.06;;;4.40;100.00
69318;BME280;56457;52.190;4.440;2023-02-15T00:14:51;103019.88;;;4.39;100.00
69318;BME280;56457;52.190;4.440;2023-02-15T00:15:51;103019.81;;;4.38;100.00
69318;BME280;56457;52.190;4.440;2023-02-15T00:16:52;103018.03;;;4.37;100.00
69318;BME280;56457;52.190;4.440;2023-02-15T00:17:53;103020.72;;;4.38;100.00
69318;BME280;56457;52.190;4.440;2023-02-15T00:18:53;103012.97;;;4.40;100.00
69318;BME280;56457;52.190;4.440;2023-02-15T00:19:53;103012.97;;;4.40;100.00
69318;BME280;56457;52.190;4.440;2023-02-15T00:20:54;103007.78;;;4.40;100.00
69318;BME280;56457;52.190;4.440;2023-02-15T00:21:54;103010.31;;;4.38;100.00
69318;BME280;56457;52.190;4.440;2023-02-15T00:22:54;103010.31;;;4.38;100.00
69318;BME280;56457;52.190;4.440;2023-02-15T00:23:55;103003.34;;;4.37;100.00
69318;BME280;56457;52.190;4.440;2023-02-15T00:24:55;103004.22;;;4.38;100.00
69318;BME280;56457;52.190;4.440;2023-02-15T00:26:03;103000.66;;;4.36;100.00
69318;BME280;56457;52.190;4.440;2023-02-15T00:27:03;103014.63;;;4.38;100.00
69318;BME280;56457;52.190;4.440;2023-02-15T00:28:04;103004.16;;;4.36;100.00
69318;BME280;56457;52.190;4.440;2023-02-15T00:29:04;103005.94;;;4.37;100.00
69318;BME280;56457;52.190;4.440;2023-02-15T00:30:05;103008.59;;;4.39;100.00
69318;BME280;56457;52.190;4.440;2023-02-15T00:31:07;103008.84;;;4.43;100.00
69318;BME280;56457;52.190;4.440;2023-02-15T00:32:07;103014.03;;;4.43;100.00
69318;BME280;56457;52.190;4.440;2023-02-15T00:33:07;103007.22;;;4.45;100.00
69318;BME280;56457;52.190;4.440;2023-02-15T00:34:12;103001.06;;;4.43;100.00
69318;BME280;56457;52.190;4.440;2023-02-15T00:35:13;103001.75;;;4.41;100.00
69318;BME280;56457;52.190;4.440;2023-02-15T00:36:13;102998.28;;;4.40;100.00
69318;BME280;56457;52.190;4.440;2023-02-15T00:37:13;102993.00;;;4.39;100.00
69318;BME280;56457;52.190;4.440;2023-02-15T00:38:14;102993.66;;;4.35;100.00
69318;BME280;56457;52.190;4.440;2023-02-15T00:39:14;102993.75;;;4.36;100.00
69318;BME280;56457;52.190;4.440;2023-02-15T00:40:15;102996.50;;;4.39;100.00
69318;BME280;56457;52.190;4.440;2023-02-15T00:41:15;102994.72;;;4.38;100.00
69318;BME280;56457;52.190;4.440;2023-02-15T00:42:15;102995.59;;;4.39;100.00
69318;BME280;56457;52.190;4.440;2023-02-15T00:43:16;102999.91;;;4.38;100.00
69318;BME280;56457;52.190;4.440;2023-02-15T00:44:16;102993.00;;;4.39;100.00
69318;BME280;56457;52.190;4.440;2023-02-15T00:45:16;102995.78;;;4.42;100.00
69318;BME280;56457;52.190;4.440;2023-02-15T00:46:16;102992.75;;;4.34;100.00
69318;BME280;56457;52.190;4.440;2023-02-15T00:47:17;102998.13;;;4.37;100.00
69318;BME280;56457;52.190;4.440;2023-02-15T00:48:17;102996.34;;;4.36;100.00
69318;BME280;56457;52.190;4.440;2023-02-15T00:49:18;102999.78;;;4.35;100.00
69318;BME280;56457;52.190;4.440;2023-02-15T00:50:18;103001.75;;;4.41;100.00
69318;BME280;56457;52.190;4.440;2023-02-15T00:51:18;103000.88;;;4.40;100.00
69318;BME280;56457;52.190;4.440;2023-02-15T00:52:20;103002.50;;;4.38;100.00
69318;BME280;56457;52.190;4.440;2023-02-15T00:53:20;102996.34;;;4.36;100.00
69318;BME280;56457;52.190;4.440;2023-02-15T00:54:20;102989.94;;;4.29;100.00
69318;BME280;56457;52.190;4.440;2023-02-15T00:55:21;102993.94;;;4.23;100.00
69318;BME280;56457;52.190;4.440;2023-02-15T00:56:21;102986.94;;;4.22;100.00
69318;BME280;56457;52.190;4.440;2023-02-15T00:57:21;102987.75;;;4.21;100.00
69318;BME280;56457;52.190;4.440;2023-02-15T00:58:22;102988.63;;;4.21;100.00
69318;BME280;56457;52.190;4.440;2023-02-15T00:59:22;102984.25;;;4.20;100.00
69318;BME280;56457;52.190;4.440;2023-02-15T01:00:22;102988.56;;;4.20;100.00
69318;BME280;56457;52.190;4.440;2023-02-15T01:01:23;102981.41;;;4.16;100.00
69318;BME280;56457;52.190;4.440;2023-02-15T01:02:23;102987.41;;;4.15;100.00
69318;BME280;56457;52.190;4.440;2023-02-15T01:03:23;102986.47;;;4.13;100.00
69318;BME280;56457;52.190;4.440;2023-02-15T01:04:24;102986.38;;;4.11;100.00
69318;BME280;56457;52.190;4.440;2023-02-15T01:05:24;102978.47;;;4.10;100.00
69318;BME280;56457;52.190;4.440;2023-02-15T01:06:24;102980.13;;;4.08;100.00
69318;BME280;56457;52.190;4.440;2023-02-15T01:07:25;102980.63;;;4.00;100.00
69318;BME280;56457;52.190;4.440;2023-02-15T01:08:25;102981.34;;;3.98;100.00
69318;BME280;56457;52.190;4.440;2023-02-15T01:09:25;102973.31;;;3.93;100.00
69318;BME280;56457;52.190;4.440;2023-02-15T01:10:26;102976.81;;;3.94;100.00
69318;BME280;56457;52.190;4.440;2023-02-15T01:11:27;102976.06;;;3.96;100.00
69318;BME280;56457;52.190;4.440;2023-02-15T01:12:27;102976.50;;;4.04;100.00
69318;BME280;56457;52.190;4.440;2023-02-15T01:13:27;102976.50;;;4.04;100.00
69318;BME280;56457;52.190;4.440;2023-02-15T01:14:28;102976.50;;;4.04;100.00
69318;BME280;56457;52.190;4.440;2023-02-15T01:15:28;102974.84;;;4.06;100.00
69318;BME280;56457;52.190;4.440;2023-02-15T01:16:29;102975.00;;;4.09;100.00
69318;BME280;56457;52.190;4.440;2023-02-15T01:17:29;102974.09;;;4.09;100.00
69318;BME280;56457;52.190;4.440;2023-02-15T01:18:30;102973.06;;;4.05;100.00
69318;BME280;56457;52.190;4.440;2023-02-15T01:19:31;102963.41;;;4.02;100.00
69318;BME280;56457;52.190;4.440;2023-02-15T01:20:34;102973.25;;;3.92;100.00
69318;BME280;56457;52.190;4.440;2023-02-15T01:21:35;102970.31;;;3.86;100.00
69318;BME280;56457;52.190;4.440;2023-02-15T01:22:35;102967.88;;;3.89;100.00
69318;BME280;56457;52.190;4.440;2023-02-15T01:23:35;102971.28;;;3.88;100.00
69318;BME280;56457;52.190;4.440;2023-02-15T01:24:37;102970.47;;;3.89;100.00
69318;BME280;56457;52.190;4.440;2023-02-15T01:25:37;102966.00;;;3.86;100.00
69318;BME280;56457;52.190;4.440;2023-02-15T01:26:37;102963.22;;;3.83;100.00
69318;BME280;56457;52.190;4.440;2023-02-15T01:27:38;102965.75;;;3.82;100.00
69318;BME280;56457;52.190;4.440;2023-02-15T01:28:38;102964.78;;;3.80;100.00
69318;BME280;56457;52.190;4.440;2023-02-15T01:29:38;102977.03;;;3.82;100.00
69318;BME280;56457;52.190;4.440;2023-02-15T01:30:39;102963.31;;;3.85;100.00
69318;BME280;56457;52.190;4.440;2023-02-15T01:31:40;102965.75;;;3.82;100.00
69318;BME280;56457;52.190;4.440;2023-02-15T01:32:40;102964.88;;;3.81;100.00
69318;BME280;56457;52.190;4.440;2023-02-15T01:33:41;102968.50;;;3.85;100.00
69318;BME280;56457;52.190;4.440;2023-02-15T01:34:41;102960.72;;;3.85;100.00
69318;BME280;56457;52.190;4.440;2023-02-15T01:35:41;102959.94;;;3.86;100.00
69318;BME280;56457;52.190;4.440;2023-02-15T01:36:42;102963.31;;;3.85;100.00
69318;BME280;56457;52.190;4.440;2023-02-15T01:37:42;102957.97;;;3.82;100.00
69318;BME280;56457;52.190;4.440;2023-02-15T01:38:42;102956.75;;;3.75;100.00
69318;BME280;56457;52.190;4.440;2023-02-15T01:39:43;102959.16;;;3.72;100.00
69318;BME280;56457;52.190;4.440;2023-02-15T01:40:43;102964.47;;;3.73;100.00
69318;BME280;56457;52.190;4.440;2023-02-15T01:41:43;102962.56;;;3.71;100.00
69318;BME280;56457;52.190;4.440;2023-02-15T01:42:43;102955.59;;;3.70;100.00
69318;BME280;56457;52.190;4.440;2023-02-15T01:43:45;102962.75;;;3.74;100.00
69318;BME280;56457;52.190;4.440;2023-02-15T01:44:56;102956.00;;;3.77;100.00
69318;BME280;56457;52.190;4.440;2023-02-15T01:45:56;102953.59;;;3.81;100.00
69318;BME280;56457;52.190;4.440;2023-02-15T01:46:57;102961.19;;;3.77;100.00
69318;BME280;56457;52.190;4.440;2023-02-15T01:48:05;102954.06;;;3.73;100.00
69318;BME280;56457;52.190;4.440;2023-02-15T01:49:10;102955.69;;;3.71;100.00
69318;BME280;56457;52.190;4.440;2023-02-15T01:51:16;102953.56;;;3.64;100.00
69318;BME280;56457;52.190;4.440;2023-02-15T01:52:18;102954.38;;;3.63;100.00
69318;BME280;56457;52.190;4.440;2023-02-15T01:54:27;102946.19;;;3.56;100.00
69318;BME280;56457;52.190;4.440;2023-02-15T01:55:33;102953.44;;;3.46;100.00
69318;BME280;56457;52.190;4.440;2023-02-15T01:56:35;102945.44;;;3.42;100.00
69318;BME280;56457;52.190;4.440;2023-02-15T01:57:37;102947.84;;;3.39;100.00
69318;BME280;56457;52.190;4.440;2023-02-15T01:58:38;102945.88;;;3.35;100.00
69318;BME280;56457;52.190;4.440;2023-02-15T01:59:39;102940.34;;;3.29;100.00
69318;BME280;56457;52.190;4.440;2023-02-15T02:00:41;102942.06;;;3.28;100.00
69318;BME280;56457;52.190;4.440;2023-02-15T02:01:42;102944.66;;;3.28;100.00
69318;BME280;56457;52.190;4.440;2023-02-15T02:02:43;102939.06;;;3.20;100.00
69318;BME280;56457;52.190;4.440;2023-02-15T02:04:48;102945.31;;;3.24;100.00
69318;BME280;56457;52.190;4.440;2023-02-15T02:05:49;102942.78;;;3.26;100.00
69318;BME280;56457;52.190;4.440;2023-02-15T02:06:49;102940.13;;;3.24;100.00
69318;BME280;56457;52.190;4.440;2023-02-15T02:07:51;102947.25;;;3.28;100.00
69318;BME280;56457;52.190;4.440;2023-02-15T02:08:53;102944.75;;;3.30;100.00
69318;BME280;56457;52.190;4.440;2023-02-15T02:09:53;102939.38;;;3.27;100.00
69318;BME280;56457;52.190;4.440;2023-02-15T02:10:54;102936.66;;;3.23;100.00
69318;BME280;56457;52.190;4.440;2023-02-15T02:11:54;102931.91;;;3.16;100.00
69318;BME280;56457;52.190;4.440;2023-02-15T02:12:55;102926.63;;;3.15;100.00
69318;BME280;56457;52.190;4.440;2023-02-15T02:13:57;102929.16;;;3.13;100.00
69318;BME280;56457;52.190;4.440;2023-02-15T02:14:58;102932.56;;;3.12;100.00
69318;BME280;56457;52.190;4.440;2023-02-15T02:16:08;102920.28;;;3.10;100.00
69318;BME280;56457;52.190;4.440;2023-02-15T02:18:29;102920.06;;;3.05;100.00
69318;BME280;56457;52.190;4.440;2023-02-15T02:25:36;102916.31;;;3.00;100.00
69318;BME280;56457;52.190;4.440;2023-02-15T02:31:44;102903.34;;;2.85;100.00
69318;BME280;56457;52.190;4.440;2023-02-15T02:33:37;102905.78;;;2.82;100.00
69318;BME280;56457;52.190;4.440;2023-02-15T02:34:36;102904.91;;;2.82;100.00
69318;BME280;56457;52.190;4.440;2023-02-15T02:37:33;102901.56;;;2.84;100.00
69318;BME280;56457;52.190;4.440;2023-02-15T02:38:15;102891.38;;;2.87;100.00
69318;BME280;56457;52.190;4.440;2023-02-15T02:39:22;102904.63;;;2.92;100.00
69318;BME280;56457;52.190;4.440;2023-02-15T02:40:45;102892.63;;;2.94;100.00
69318;BME280;56457;52.190;4.440;2023-02-15T02:42:54;102898.16;;;3.00;100.00
69318;BME280;56457;52.190;4.440;2023-02-15T02:46:14;102894.25;;;2.77;100.00
69318;BME280;56457;52.190;4.440;2023-02-15T02:47:26;102882.66;;;2.70;100.00
69318;BME280;56457;52.190;4.440;2023-02-15T02:48:30;102880.69;;;2.66;100.00
69318;BME280;56457;52.190;4.440;2023-02-15T02:49:35;102877.84;;;2.62;100.00
69318;BME280;56457;52.190;4.440;2023-02-15T02:50:38;102871.94;;;2.64;100.00
69318;BME280;56457;52.190;4.440;2023-02-15T02:51:39;102875.69;;;2.69;100.00
69318;BME280;56457;52.190;4.440;2023-02-15T02:53:45;102873.25;;;2.73;100.00
69318;BME280;56457;52.190;4.440;2023-02-15T02:54:45;102878.63;;;2.76;100.00
69318;BME280;56457;52.190;4.440;2023-02-15T02:55:47;102870.66;;;2.73;100.00
69318;BME280;56457;52.190;4.440;2023-02-15T02:56:50;102866.22;;;2.70;100.00
69318;BME280;56457;52.190;4.440;2023-02-15T02:57:52;102874.06;;;2.72;100.00
69318;BME280;56457;52.190;4.440;2023-02-15T02:59:01;102863.69;;;2.72;100.00
69318;BME280;56457;52.190;4.440;2023-02-15T03:00:03;102871.75;;;2.76;100.00
69318;BME280;56457;52.190;4.440;2023-02-15T03:02:30;102869.44;;;2.66;100.00
69318;BME280;56457;52.190;4.440;2023-02-15T03:03:38;102865.78;;;2.62;100.00
69318;BME280;56457;52.190;4.440;2023-02-15T03:04:41;102863.13;;;2.61;100.00
69318;BME280;56457;52.190;4.440;2023-02-15T03:05:44;102863.91;;;2.60;100.00
69318;BME280;56457;52.190;4.440;2023-02-15T03:06:52;102870.69;;;2.58;100.00
69318;BME280;56457;52.190;4.440;2023-02-15T03:07:56;102862.94;;;2.58;100.00
69318;BME280;56457;52.190;4.440;2023-02-15T03:08:58;102868.19;;;2.59;100.00
69318;BME280;56457;52.190;4.440;2023-02-15T03:10:02;102867.13;;;2.56;100.00
69318;BME280;56457;52.190;4.440;2023-02-15T03:11:03;102861.06;;;2.55;100.00
69318;BME280;56457;52.190;4.440;2023-02-15T03:12:04;102860.19;;;2.55;100.00
69318;BME280;56457;52.190;4.440;2023-02-15T03:13:05;102871.31;;;2.54;100.00
69318;BME280;56457;52.190;4.440;2023-02-15T03:14:05;102859.97;;;2.52;100.00
69318;BME280;56457;52.190;4.440;2023-02-15T03:15:10;102861.41;;;2.47;100.00
69318;BME280;56457;52.190;4.440;2023-02-15T03:16:11;102865.63;;;2.45;100.00
69318;BME280;56457;52.190;4.440;2023-02-15T03:17:28;102864.47;;;2.39;100.00
69318;BME280;56457;52.190;4.440;2023-02-15T03:18:31;102862.59;;;2.37;100.00
69318;BME280;56457;52.190;4.440;2023-02-15T03:19:33;102860.91;;;2.37;100.00
69318;BME280;56457;52.190;4.440;2023-02-15T03:20:35;102872.16;;;2.38;100.00
69318;BME280;56457;52.190;4.440;2023-02-15T03:21:38;102870.53;;;2.40;100.00
69318;BME280;56457;52.190;4.440;2023-02-15T03:22:43;102868.91;;;2.42;100.00
69318;BME280;56457;52.190;4.440;2023-02-15T03:23:46;102860.38;;;2.43;100.00
69318;BME280;56457;52.190;4.440;2023-02-15T03:24:49;102859.72;;;2.47;100.00
69318;BME280;56457;52.190;4.440;2023-02-15T03:25:52;102854.66;;;2.49;100.00
69318;BME280;56457;52.190;4.440;2023-02-15T03:26:55;102848.66;;;2.50;100.00
69318;BME280;56457;52.190;4.440;2023-02-15T03:27:58;102854.06;;;2.54;100.00
69318;BME280;56457;52.190;4.440;2023-02-15T03:29:00;102849.88;;;2.56;100.00
69318;BME280;56457;52.190;4.440;2023-02-15T03:30:02;102851.47;;;2.54;100.00
69318;BME280;56457;52.190;4.440;2023-02-15T03:31:04;102846.28;;;2.54;100.00
69318;BME280;56457;52.190;4.440;2023-02-15T03:32:07;102842.94;;;2.55;100.00
69318;BME280;56457;52.190;4.440;2023-02-15T03:33:08;102839.19;;;2.50;100.00
69318;BME280;56457;52.190;4.440;2023-02-15T03:34:10;102838.75;;;2.42;100.00
69318;BME280;56457;52.190;4.440;2023-02-15T03:35:11;102839.09;;;2.34;100.00
69318;BME280;56457;52.190;4.440;2023-02-15T03:36:14;102841.31;;;2.28;100.00
69318;BME280;56457;52.190;4.440;2023-02-15T03:37:39;102835.88;;;2.23;100.00
69318;BME280;56457;52.190;4.440;2023-02-15T03:38:44;102837.78;;;2.26;100.00
69318;BME280;56457;52.190;4.440;2023-02-15T03:40:49;102835.78;;;2.22;100.00
69318;BME280;56457;52.190;4.440;2023-02-15T03:43:17;102828.47;;;2.14;100.00
69318;BME280;56457;52.190;4.440;2023-02-15T03:44:23;102826.09;;;2.18;100.00
69318;BME280;56457;52.190;4.440;2023-02-15T03:45:27;102829.28;;;2.13;100.00
69318;BME280;56457;52.190;4.440;2023-02-15T03:46:31;102827.66;;;2.15;100.00
69318;BME280;56457;52.190;4.440;2023-02-15T03:47:34;102828.91;;;2.22;100.00
69318;BME280;56457;52.190;4.440;2023-02-15T03:48:37;102824.75;;;2.24;100.00
69318;BME280;56457;52.190;4.440;2023-02-15T03:49:42;102822.16;;;2.24;100.00
69318;BME280;56457;52.190;4.440;2023-02-15T03:50:43;102820.44;;;2.25;100.00
69318;BME280;56457;52.190;4.440;2023-02-15T03:52:02;102830.63;;;2.22;100.00
69318;BME280;56457;52.190;4.440;2023-02-15T03:53:05;102817.50;;;2.19;100.00
69318;BME280;56457;52.190;4.440;2023-02-15T03:55:06;102816.69;;;2.20;100.00
69318;BME280;56457;52.190;4.440;2023-02-15T03:56:06;102822.56;;;2.17;100.00
69318;BME280;56457;52.190;4.440;2023-02-15T03:57:07;102818.03;;;2.13;100.00
69318;BME280;56457;52.190;4.440;2023-02-15T03:58:27;102825.44;;;2.07;100.00
69318;BME280;56457;52.190;4.440;2023-02-15T03:59:46;102825.19;;;2.02;100.00
69318;BME280;56457;52.190;4.440;2023-02-15T04:02:50;102817.41;;;2.02;100.00
69318;BME280;56457;52.190;4.440;2023-02-15T04:03:58;102816.78;;;2.06;100.00
69318;BME280;56457;52.190;4.440;2023-02-15T04:05:00;102813.31;;;2.06;100.00
69318;BME280;56457;52.190;4.440;2023-02-15T04:06:00;102817.84;;;2.10;100.00
69318;BME280;56457;52.190;4.440;2023-02-15T04:07:02;102808.38;;;2.10;100.00
69318;BME280;56457;52.190;4.440;2023-02-15T04:08:03;102812.44;;;2.05;100.00
69318;BME280;56457;52.190;4.440;2023-02-15T04:09:04;102807.31;;;2.07;100.00
69318;BME280;56457;52.190;4.440;2023-02-15T04:10:23;102814.56;;;2.12;100.00
69318;BME280;56457;52.190;4.440;2023-02-15T04:11:42;102801.78;;;2.15;100.00
69318;BME280;56457;52.190;4.440;2023-02-15T04:12:42;102800.97;;;2.16;100.00
69318;BME280;56457;52.190;4.440;2023-02-15T04:13:42;102803.13;;;2.24;100.00
69318;BME280;56457;52.190;4.440;2023-02-15T04:14:43;102806.69;;;2.26;100.00
69318;BME280;56457;52.190;4.440;2023-02-15T04:16:01;102799.53;;;2.22;100.00
69318;BME280;56457;52.190;4.440;2023-02-15T04:17:05;102800.34;;;2.21;100.00
69318;BME280;56457;52.190;4.440;2023-02-15T04:18:06;102795.25;;;2.22;100.00
69318;BME280;56457;52.190;4.440;2023-02-15T04:19:06;102798.84;;;2.24;100.00
69318;BME280;56457;52.190;4.440;2023-02-15T04:20:25;102799.72;;;2.25;100.00
69318;BME280;56457;52.190;4.440;2023-02-15T04:21:43;102799.72;;;2.25;100.00
69318;BME280;56457;52.190;4.440;2023-02-15T04:23:05;102796.13;;;2.23;100.00
69318;BME280;56457;52.190;4.440;2023-02-15T04:24:24;102800.34;;;2.21;100.00
69318;BME280;56457;52.190;4.440;2023-02-15T04:25:42;102798.56;;;2.20;100.00
69318;BME280;56457;52.190;4.440;2023-02-15T04:26:43;102792.56;;;2.21;100.00
69318;BME280;56457;52.190;4.440;2023-02-15T04:27:44;102802.31;;;2.25;100.00
69318;BME280;56457;52.190;4.440;2023-02-15T04:28:45;102794.63;;;2.26;100.00
69318;BME280;56457;52.190;4.440;2023-02-15T04:29:45;102798.84;;;2.24;100.00
69318;BME280;56457;52.190;4.440;2023-02-15T04:30:46;102795.09;;;2.19;100.00
69318;BME280;56457;52.190;4.440;2023-02-15T04:31:46;102798.13;;;2.12;100.00
69318;BME280;56457;52.190;4.440;2023-02-15T04:32:47;102788.31;;;2.06;100.00
69318;BME280;56457;52.190;4.440;2023-02-15T04:33:47;102795.59;;;1.99;100.00
69318;BME280;56457;52.190;4.440;2023-02-15T04:34:47;102790.34;;;1.97;100.00
69318;BME280;56457;52.190;4.440;2023-02-15T04:35:48;102798.03;;;1.96;100.00
69318;BME280;56457;52.190;4.440;2023-02-15T04:36:48;102789.47;;;1.97;100.00
69318;BME280;56457;52.190;4.440;2023-02-15T04:37:50;102791.97;;;1.95;100.00
69318;BME280;56457;52.190;4.440;2023-02-15T04:38:50;102787.41;;;1.91;100.00
69318;BME280;56457;52.190;4.440;2023-02-15T04:39:51;102784.38;;;1.83;100.00
69318;BME280;56457;52.190;4.440;2023-02-15T04:40:51;102792.06;;;1.82;100.00
69318;BME280;56457;52.190;4.440;2023-02-15T04:41:52;102794.56;;;1.80;100.00
69318;BME280;56457;52.190;4.440;2023-02-15T04:42:52;102793.56;;;1.78;100.00
69318;BME280;56457;52.190;4.440;2023-02-15T04:43:52;102796.06;;;1.77;100.00
69318;BME280;56457;52.190;4.440;2023-02-15T04:44:53;102792.75;;;1.79;100.00
69318;BME280;56457;52.190;4.440;2023-02-15T04:45:53;102787.50;;;1.78;100.00
69318;BME280;56457;52.190;4.440;2023-02-15T04:46:54;102790.00;;;1.76;100.00
69318;BME280;56457;52.190;4.440;2023-02-15T04:47:54;102793.47;;;1.77;100.00
69318;BME280;56457;52.190;4.440;2023-02-15T04:48:55;102795.97;;;1.75;100.00
69318;BME280;56457;52.190;4.440;2023-02-15T04:49:56;102788.91;;;1.73;100.00
69318;BME280;56457;52.190;4.440;2023-02-15T04:50:56;102787.06;;;1.70;100.00
69318;BME280;56457;52.190;4.440;2023-02-15T04:51:56;102787.41;;;1.61;100.00
69318;BME280;56457;52.190;4.440;2023-02-15T04:52:57;102788.00;;;1.57;100.00
69318;BME280;56457;52.190;4.440;2023-02-15T04:53:57;102782.56;;;1.53;100.00
69318;BME280;56457;52.190;4.440;2023-02-15T04:54:57;102783.38;;;1.52;100.00
69318;BME280;56457;52.190;4.440;2023-02-15T04:55:58;102787.03;;;1.55;100.00
69318;BME280;56457;52.190;4.440;2023-02-15T04:56:58;102779.38;;;1.57;100.00
69318;BME280;56457;52.190;4.440;2023-02-15T04:57:58;102780.16;;;1.56;100.00
69318;BME280;56457;52.190;4.440;2023-02-15T04:58:58;102776.06;;;1.59;100.00
69318;BME280;56457;52.190;4.440;2023-02-15T04:59:59;102784.81;;;1.61;100.00
69318;BME280;56457;52.190;4.440;2023-02-15T05:00:59;102783.91;;;1.61;100.00
69318;BME280;56457;52.190;4.440;2023-02-15T05:02:00;102783.38;;;1.67;100.00
69318;BME280;56457;52.190;4.440;2023-02-15T05:03:00;102778.19;;;1.67;100.00
69318;BME280;56457;52.190;4.440;2023-02-15T05:04:01;102785.16;;;1.68;100.00
69318;BME280;56457;52.190;4.440;2023-02-15T05:05:01;102785.28;;;1.69;100.00
69318;BME280;56457;52.190;4.440;2023-02-15T05:06:02;102785.28;;;1.69;100.00
69318;BME280;56457;52.190;4.440;2023-02-15T05:07:02;102776.78;;;1.72;100.00
69318;BME280;56457;52.190;4.440;2023-02-15T05:08:03;102780.25;;;1.72;100.00
69318;BME280;56457;52.190;4.440;2023-02-15T05:09:03;102778.91;;;1.79;100.00
69318;BME280;56457;52.190;4.440;2023-02-15T05:10:03;102777.94;;;1.77;100.00
69318;BME280;56457;52.190;4.440;2023-02-15T05:11:04;102778.03;;;1.78;100.00
69318;BME280;56457;52.190;4.440;2023-02-15T05:12:04;102770.91;;;1.74;100.00
69318;BME280;56457;52.190;4.440;2023-02-15T05:13:05;102774.56;;;1.78;100.00
69318;BME280;56457;52.190;4.440;2023-02-15T05:14:05;102774.47;;;1.76;100.00
69318;BME280;56457;52.190;4.440;2023-02-15T05:15:05;102776.25;;;1.77;100.00
69318;BME280;56457;52.190;4.440;2023-02-15T05:16:06;102776.34;;;1.79;100.00
69318;BME280;56457;52.190;4.440;2023-02-15T05:17:06;102777.41;;;1.82;100.00
69318;BME280;56457;52.190;4.440;2023-02-15T05:18:07;102777.50;;;1.84;100.00
69318;BME280;56457;52.190;4.440;2023-02-15T05:19:07;102777.41;;;1.82;100.00
69318;BME280;56457;52.190;4.440;2023-02-15T05:20:08;102777.59;;;1.85;100.00
69318;BME280;56457;52.190;4.440;2023-02-15T05:21:08;102775.88;;;1.86;100.00
69318;BME280;56457;52.190;4.440;2023-02-15T05:22:09;102781.06;;;1.86;100.00
69318;BME280;56457;52.190;4.440;2023-02-15T05:23:09;102776.09;;;1.89;100.00
69318;BME280;56457;52.190;4.440;2023-02-15T05:24:10;102780.72;;;1.95;100.00
69318;BME280;56457;52.190;4.440;2023-02-15T05:25:29;102772.16;;;1.96;100.00
69318;BME280;56457;52.190;4.440;2023-02-15T05:26:48;102774.00;;;1.98;100.00
69318;BME280;56457;52.190;4.440;2023-02-15T05:28:10;102782.50;;;1.96;100.00
69318;BME280;56457;52.190;4.440;2023-02-15T05:29:19;102777.50;;;1.99;100.00
69318;BME280;56457;52.190;4.440;2023-02-15T05:30:19;102769.63;;;1.97;100.00
69318;BME280;56457;52.190;4.440;2023-02-15T05:31:20;102768.41;;;1.91;100.00
69318;BME280;56457;52.190;4.440;2023-02-15T05:32:20;102772.59;;;1.88;100.00
69318;BME280;56457;52.190;4.440;2023-02-15T05:33:20;102772.16;;;1.81;100.00
69318;BME280;56457;52.190;4.440;2023-02-15T05:34:21;102773.13;;;1.83;100.00
69318;BME280;56457;52.190;4.440;2023-02-15T05:35:21;102773.13;;;1.83;100.00
69318;BME280;56457;52.190;4.440;2023-02-15T05:36:21;102769.75;;;1.84;100.00
69318;BME280;56457;52.190;4.440;2023-02-15T05:37:22;102765.38;;;1.83;100.00
69318;BME280;56457;52.190;4.440;2023-02-15T05:38:22;102764.75;;;1.87;100.00
69318;BME280;56457;52.190;4.440;2023-02-15T05:39:22;102771.25;;;1.95;100.00
69318;BME280;56457;52.190;4.440;2023-02-15T05:40:22;102766.16;;;1.97;100.00
69318;BME280;56457;52.190;4.440;2023-02-15T05:41:23;102761.34;;;2.03;100.00
69318;BME280;56457;52.190;4.440;2023-02-15T05:42:24;102768.66;;;2.10;100.00
69318;BME280;56457;52.190;4.440;2023-02-15T05:43:24;102773.38;;;2.17;100.00
69318;BME280;56457;52.190;4.440;2023-02-15T05:44:25;102763.00;;;2.17;100.00
69318;BME280;56457;52.190;4.440;2023-02-15T05:45:25;102760.63;;;2.20;100.00
69318;BME280;56457;52.190;4.440;2023-02-15T05:46:25;102759.09;;;2.24;100.00
69318;BME280;56457;52.190;4.440;2023-02-15T05:47:26;102752.28;;;2.26;100.00
69318;BME280;56457;52.190;4.440;2023-02-15T05:48:26;102750.69;;;2.28;100.00
69318;BME280;56457;52.190;4.440;2023-02-15T05:49:26;102749.72;;;2.26;100.00
69318;BME280;56457;52.190;4.440;2023-02-15T05:50:27;102752.28;;;2.26;100.00
69318;BME280;56457;52.190;4.440;2023-02-15T05:51:27;102744.53;;;2.26;100.00
69318;BME280;56457;52.190;4.440;2023-02-15T05:52:27;102744.59;;;2.27;100.00
69318;BME280;56457;52.190;4.440;2023-02-15T05:53:28;102741.75;;;2.23;100.00
69318;BME280;56457;52.190;4.440;2023-02-15T05:54:29;102732.75;;;2.16;100.00
69318;BME280;56457;52.190;4.440;2023-02-15T05:55:29;102738.66;;;2.13;100.00